createdAt,value
2023-03-06T00:00:18.246Z,9.93
2023-03-06T00:02:46.469Z,10.07
2023-03-06T00:05:15.482Z,9.87
2023-03-06T00:07:44.494Z,10.20
2023-03-06T00:10:15.382Z,10.03
2023-03-06T00:12:43.714Z,10.90
2023-03-06T00:15:13.488Z,12.13
2023-03-06T00:17:42.879Z,11.37
2023-03-06T00:20:12.332Z,10.90
2023-03-06T00:22:40.954Z,11.27
2023-03-06T00:25:12.994Z,12.43
2023-03-06T00:27:41.341Z,12.47
2023-03-06T00:30:11.998Z,10.90
2023-03-06T00:32:40.035Z,10.67
2023-03-06T00:35:10.311Z,11.80
2023-03-06T00:37:38.387Z,10.37
2023-03-06T00:40:07.893Z,11.63
2023-03-06T00:42:36.015Z,10.90
2023-03-06T00:45:04.251Z,11.37
2023-03-06T00:47:32.282Z,9.50
2023-03-06T00:50:00.333Z,9.20
2023-03-06T00:52:29.720Z,10.77
2023-03-06T00:54:57.710Z,10.10
2023-03-06T00:57:25.707Z,10.17
2023-03-06T00:59:53.795Z,9.10
2023-03-06T01:02:22.215Z,11.17
2023-03-06T01:04:50.185Z,9.97
2023-03-06T01:07:18.280Z,9.30
2023-03-06T01:09:47.613Z,8.90
2023-03-06T01:12:15.690Z,10.20
2023-03-06T01:14:43.755Z,10.20
2023-03-06T01:17:12.005Z,9.57
2023-03-06T01:19:40.001Z,8.03
2023-03-06T01:22:08.028Z,9.60
2023-03-06T01:24:36.048Z,10.67
2023-03-06T01:27:05.461Z,9.53
2023-03-06T01:29:33.481Z,8.93
2023-03-06T01:32:01.666Z,9.40
2023-03-06T01:34:29.767Z,9.20
2023-03-06T01:36:57.825Z,8.70
2023-03-06T01:39:26.011Z,9.37
2023-03-06T01:41:54.093Z,10.67
2023-03-06T01:44:23.561Z,8.27
2023-03-06T01:46:51.772Z,9.40
2023-03-06T01:49:23.210Z,8.33
2023-03-06T01:51:55.395Z,7.80
2023-03-06T01:54:27.921Z,8.20
2023-03-06T01:57:03.721Z,8.17
2023-03-06T01:59:36.271Z,8.80
2023-03-06T02:02:07.213Z,7.83
2023-03-06T02:04:36.840Z,9.67
2023-03-06T02:07:05.786Z,7.30
2023-03-06T02:09:34.766Z,8.37
2023-03-06T02:12:03.808Z,8.53
2023-03-06T02:14:33.253Z,9.33
2023-03-06T02:17:01.443Z,8.90
2023-03-06T02:19:37.558Z,8.80
2023-03-06T02:22:05.657Z,8.90
2023-03-06T02:24:40.127Z,7.80
2023-03-06T02:27:14.251Z,8.60
2023-03-06T02:29:42.354Z,7.63
2023-03-06T02:32:10.642Z,7.27
2023-03-06T02:34:55.630Z,9.27
2023-03-06T02:37:25.175Z,9.90
2023-03-06T02:40:00.690Z,10.13
2023-03-06T02:42:30.594Z,9.87
2023-03-06T02:45:02.195Z,9.13
2023-03-06T02:47:30.214Z,9.83
2023-03-06T02:49:58.244Z,8.87
2023-03-06T02:52:26.233Z,9.43
2023-03-06T02:54:54.216Z,9.80
2023-03-06T02:57:22.209Z,9.10
2023-03-06T02:59:51.616Z,8.47
2023-03-06T03:02:19.602Z,9.40
2023-03-06T03:04:47.646Z,7.40
2023-03-06T03:07:15.693Z,8.53
2023-03-06T03:09:43.865Z,9.80
2023-03-06T03:12:12.079Z,8.27
2023-03-06T03:14:40.122Z,7.93
2023-03-06T03:17:09.524Z,8.57
2023-03-06T03:19:37.478Z,8.30
2023-03-06T03:22:05.528Z,8.03
2023-03-06T03:24:33.587Z,7.83
2023-03-06T03:27:01.988Z,8.60
2023-03-06T03:29:30.010Z,8.47
2023-03-06T03:31:58.123Z,8.00
2023-03-06T03:34:27.775Z,8.50
2023-03-06T03:36:55.825Z,8.60
2023-03-06T03:39:23.917Z,8.03
2023-03-06T03:41:51.914Z,10.80
2023-03-06T03:44:19.913Z,11.00
2023-03-06T03:46:48.033Z,10.70
2023-03-06T03:49:16.469Z,13.67
2023-03-06T03:51:46.270Z,10.80
2023-03-06T03:54:14.400Z,8.80
2023-03-06T03:56:42.468Z,8.67
2023-03-06T03:59:10.459Z,8.00
2023-03-06T04:01:39.797Z,8.70
2023-03-06T04:04:08.137Z,8.77
2023-03-06T04:06:36.107Z,8.80
2023-03-06T04:09:05.903Z,8.50
2023-03-06T04:11:33.972Z,8.53
2023-03-06T04:14:03.301Z,9.90
2023-03-06T04:16:31.521Z,9.70
2023-03-06T04:18:59.507Z,22.83
2023-03-06T04:21:27.582Z,10.03
2023-03-06T04:23:55.571Z,8.80
2023-03-06T04:26:25.006Z,8.77
2023-03-06T04:28:53.034Z,8.63
2023-03-06T04:31:21.072Z,7.93
2023-03-06T04:33:49.169Z,8.80
2023-03-06T04:36:26.740Z,7.60
2023-03-06T04:38:54.930Z,8.47
2023-03-06T04:41:24.722Z,8.37
2023-03-06T04:43:53.104Z,7.43
2023-03-06T04:46:21.248Z,7.03
2023-03-06T04:48:49.258Z,8.53
2023-03-06T04:51:17.327Z,7.30
2023-03-06T04:53:45.290Z,7.47
2023-03-06T04:56:13.349Z,8.10
2023-03-06T04:58:43.774Z,8.17
2023-03-06T05:01:11.957Z,8.03
2023-03-06T05:03:40.064Z,7.10
2023-03-06T05:06:08.631Z,7.37
2023-03-06T05:08:36.654Z,7.03
2023-03-06T05:11:04.729Z,7.80
2023-03-06T05:13:32.766Z,7.60
2023-03-06T05:16:05.504Z,7.10
2023-03-06T05:18:34.157Z,8.60
2023-03-06T05:21:02.914Z,7.17
2023-03-06T05:23:32.453Z,7.33
2023-03-06T05:26:00.406Z,7.30
2023-03-06T05:28:28.685Z,7.93
2023-03-06T05:30:56.993Z,7.30
2023-03-06T05:33:26.522Z,7.93
2023-03-06T05:35:54.596Z,7.70
2023-03-06T05:38:23.165Z,7.63
2023-03-06T05:40:51.156Z,7.20
2023-03-06T05:43:19.185Z,6.77
2023-03-06T05:45:47.295Z,6.87
2023-03-06T05:48:15.327Z,6.80
2023-03-06T05:50:44.668Z,7.80
2023-03-06T05:53:12.714Z,8.00
2023-03-06T05:55:40.792Z,8.30
2023-03-06T05:58:08.876Z,8.50
2023-03-06T06:00:36.915Z,8.40
2023-03-06T06:03:05.359Z,7.17
2023-03-06T06:05:33.373Z,8.00
2023-03-06T06:08:02.939Z,6.73
2023-03-06T06:10:30.999Z,7.47
2023-03-06T06:12:59.035Z,7.93
2023-03-06T06:15:28.896Z,7.20
2023-03-06T06:17:56.919Z,7.00
2023-03-06T06:20:25.389Z,6.67
2023-03-06T06:22:53.636Z,6.40
2023-03-06T06:25:23.123Z,7.50
2023-03-06T06:27:51.180Z,7.83
2023-03-06T06:30:19.527Z,7.03
2023-03-06T06:32:47.554Z,7.80
2023-03-06T06:35:15.815Z,6.60
2023-03-06T06:37:43.870Z,7.70
2023-03-06T06:40:13.040Z,7.20
2023-03-06T06:42:42.570Z,6.90
2023-03-06T06:45:12.263Z,6.53
2023-03-06T06:47:41.348Z,7.43
2023-03-06T06:50:13.135Z,8.07
2023-03-06T06:52:41.249Z,7.47
2023-03-06T06:55:10.377Z,6.57
2023-03-06T06:57:38.552Z,7.20
2023-03-06T07:00:09.464Z,7.20
2023-03-06T07:02:37.465Z,7.03
2023-03-06T07:05:06.159Z,7.33
2023-03-06T07:07:36.748Z,6.90
2023-03-06T07:10:06.830Z,7.23
2023-03-06T07:12:35.212Z,7.87
2023-03-06T07:15:05.178Z,7.20
2023-03-06T07:17:34.633Z,7.13
2023-03-06T07:20:06.895Z,6.93
2023-03-06T07:22:48.683Z,6.90
2023-03-06T07:25:19.031Z,8.53
2023-03-06T07:27:53.079Z,8.50
2023-03-06T07:30:22.750Z,7.10
2023-03-06T07:32:55.392Z,6.00
2023-03-06T07:35:23.974Z,6.40
2023-03-06T07:37:52.218Z,5.83
2023-03-06T07:40:21.048Z,7.17
2023-03-06T07:42:49.321Z,6.87
2023-03-06T07:45:17.541Z,6.30
2023-03-06T07:47:45.634Z,7.30
2023-03-06T07:50:14.992Z,6.60
2023-03-06T07:52:43.223Z,6.70
2023-03-06T07:55:12.046Z,8.13
2023-03-06T07:57:40.395Z,7.10
2023-03-06T08:00:12.752Z,6.13
2023-03-06T08:02:41.895Z,7.43
2023-03-06T08:05:13.585Z,6.77
2023-03-06T08:07:45.682Z,7.40
2023-03-06T08:10:16.462Z,6.90
2023-03-06T08:12:44.758Z,7.10
2023-03-06T08:15:14.060Z,6.37
2023-03-06T08:17:42.233Z,6.37
2023-03-06T08:20:11.694Z,5.93
2023-03-06T08:22:39.798Z,6.67
2023-03-06T08:25:10.424Z,6.37
2023-03-06T08:27:38.544Z,5.60
2023-03-06T08:30:07.801Z,5.57
2023-03-06T08:32:37.141Z,5.60
2023-03-06T08:35:05.919Z,5.63
2023-03-06T08:37:34.164Z,5.90
2023-03-06T08:40:04.552Z,6.27
2023-03-06T08:42:34.085Z,5.40
2023-03-06T08:45:02.121Z,6.17
2023-03-06T08:47:30.245Z,5.03
2023-03-06T08:50:00.185Z,6.20
2023-03-06T08:52:28.800Z,7.40
2023-03-06T08:54:58.012Z,5.53
2023-03-06T08:57:26.145Z,6.00
2023-03-06T08:59:55.709Z,4.90
2023-03-06T09:02:23.818Z,5.20
2023-03-06T09:04:51.875Z,6.00
2023-03-06T09:07:19.911Z,5.80
2023-03-06T09:09:47.937Z,5.53
2023-03-06T09:12:15.935Z,5.23
2023-03-06T09:14:43.935Z,6.00
2023-03-06T09:17:13.246Z,4.70
2023-03-06T09:19:41.239Z,5.77
2023-03-06T09:22:09.350Z,6.17
2023-03-06T09:24:37.392Z,4.70
2023-03-06T09:27:05.483Z,5.33
2023-03-06T09:29:33.438Z,5.73
2023-03-06T09:32:01.464Z,5.83
2023-03-06T09:34:30.938Z,5.33
2023-03-06T09:36:58.925Z,6.43
2023-03-06T09:39:27.751Z,5.40
2023-03-06T09:41:57.776Z,5.43
2023-03-06T09:44:28.609Z,5.60
2023-03-06T09:47:31.695Z,5.10
2023-03-06T09:50:24.039Z,5.00
2023-03-06T09:53:15.162Z,5.20
2023-03-06T09:55:44.550Z,4.90
2023-03-06T09:58:17.117Z,5.80
2023-03-06T10:00:51.765Z,5.37
2023-03-06T10:03:26.678Z,6.03
2023-03-06T10:06:02.519Z,5.10
2023-03-06T10:08:44.073Z,5.50
2023-03-06T10:11:14.307Z,4.87
2023-03-06T10:13:45.878Z,5.20
2023-03-06T10:16:23.466Z,4.90
2023-03-06T10:18:52.116Z,6.37
2023-03-06T10:21:34.558Z,4.67
2023-03-06T10:24:14.424Z,5.10
2023-03-06T10:26:50.088Z,5.77
2023-03-06T10:29:42.202Z,4.93
2023-03-06T10:32:24.430Z,4.77
2023-03-06T10:34:54.251Z,6.57
2023-03-06T10:37:24.556Z,5.60
2023-03-06T10:39:58.227Z,5.13
2023-03-06T10:42:28.022Z,6.00
2023-03-06T10:45:11.738Z,4.90
2023-03-06T10:47:40.907Z,4.50
2023-03-06T10:50:25.674Z,6.03
2023-03-06T10:53:04.443Z,7.40
2023-03-06T10:55:33.975Z,6.27
2023-03-06T10:58:20.812Z,7.40
2023-03-06T11:01:00.716Z,7.30
2023-03-06T11:03:29.345Z,5.03
2023-03-06T11:06:02.466Z,5.60
2023-03-06T11:08:32.182Z,5.30
2023-03-06T11:11:02.877Z,4.77
2023-03-06T11:13:33.201Z,5.80
2023-03-06T11:16:04.308Z,5.50
2023-03-06T11:18:37.146Z,4.83
2023-03-06T11:21:09.115Z,5.50
2023-03-06T11:23:43.793Z,5.93
2023-03-06T11:26:38.537Z,5.20
2023-03-06T11:29:39.228Z,4.77
2023-03-06T11:32:12.918Z,5.27
2023-03-06T11:34:49.208Z,5.07
2023-03-06T11:37:26.872Z,4.80
2023-03-06T11:40:05.679Z,5.17
2023-03-06T11:42:39.146Z,5.57
2023-03-06T11:45:25.015Z,5.20
2023-03-06T11:48:02.812Z,5.37
2023-03-06T11:50:35.642Z,5.70
2023-03-06T11:53:06.052Z,4.90
2023-03-06T11:55:45.627Z,5.10
2023-03-06T11:58:40.863Z,5.20
2023-03-06T12:01:12.978Z,5.50
2023-03-06T12:04:04.070Z,5.60
2023-03-06T12:06:44.065Z,4.90
2023-03-06T12:09:29.636Z,4.50
2023-03-06T12:12:18.297Z,5.73
2023-03-06T12:15:09.576Z,5.07
2023-03-06T12:17:55.933Z,5.90
2023-03-06T12:20:51.743Z,5.37
2023-03-06T12:23:35.478Z,5.00
2023-03-06T12:26:22.725Z,5.00
2023-03-06T12:29:12.242Z,4.87
2023-03-06T12:31:52.375Z,4.80
2023-03-06T12:34:34.478Z,5.17
2023-03-06T12:37:14.116Z,5.70
2023-03-06T12:39:57.038Z,5.27
2023-03-06T12:42:43.436Z,5.80
2023-03-06T12:45:30.661Z,6.37
2023-03-06T12:47:59.204Z,6.30
2023-03-06T12:50:29.962Z,6.80
2023-03-06T12:53:01.361Z,7.43
2023-03-06T12:55:42.724Z,6.30
2023-03-06T12:58:36.886Z,5.67
2023-03-06T13:01:14.915Z,5.47
2023-03-06T13:03:59.785Z,4.73
2023-03-06T13:06:56.877Z,7.40
2023-03-06T13:09:34.661Z,7.50
2023-03-06T13:12:35.209Z,6.90
2023-03-06T13:15:28.536Z,6.00
2023-03-06T13:17:58.041Z,6.97
2023-03-06T13:20:38.424Z,7.10
2023-03-06T13:23:45.652Z,6.00
2023-03-06T13:26:52.320Z,5.93
2023-03-06T13:30:00.016Z,5.30
2023-03-06T13:32:36.133Z,4.73
2023-03-06T13:35:53.130Z,6.90
2023-03-06T13:39:06.143Z,5.27
2023-03-06T13:41:56.618Z,6.90
2023-03-06T13:44:52.293Z,5.83
2023-03-06T13:47:59.104Z,7.33
2023-03-06T13:50:37.372Z,5.77
2023-03-06T13:53:37.922Z,6.20
2023-03-06T13:56:38.276Z,5.53
2023-03-06T13:59:25.456Z,4.50
2023-03-06T14:02:02.790Z,5.10
2023-03-06T14:04:39.341Z,5.70
2023-03-06T14:07:27.892Z,5.40
2023-03-06T14:10:11.728Z,6.20
2023-03-06T14:12:44.684Z,6.27
2023-03-06T14:15:18.328Z,5.30
2023-03-06T14:17:57.352Z,4.50
2023-03-06T14:20:34.318Z,5.40
2023-03-06T14:23:32.285Z,4.70
2023-03-06T14:26:15.434Z,4.93
2023-03-06T14:28:44.959Z,5.13
2023-03-06T14:31:18.810Z,4.40
2023-03-06T14:33:53.057Z,4.73
2023-03-06T14:36:22.933Z,5.50
2023-03-06T14:38:55.561Z,4.30
2023-03-06T14:41:25.922Z,4.93
2023-03-06T14:44:07.829Z,5.23
2023-03-06T14:46:38.213Z,4.90
2023-03-06T14:49:08.105Z,5.03
2023-03-06T14:51:41.696Z,4.67
2023-03-06T14:54:17.133Z,4.60
2023-03-06T14:56:47.837Z,5.50
2023-03-06T14:59:19.453Z,5.70
2023-03-06T15:01:50.624Z,5.30
2023-03-06T15:04:26.803Z,4.60
2023-03-06T15:06:56.680Z,4.57
2023-03-06T15:09:29.606Z,4.43
2023-03-06T15:12:00.506Z,5.03
2023-03-06T15:14:34.862Z,5.37
2023-03-06T15:17:26.691Z,5.10
2023-03-06T15:19:56.582Z,5.00
2023-03-06T15:22:31.645Z,5.47
2023-03-06T15:25:20.920Z,4.50
2023-03-06T15:27:51.043Z,4.90
2023-03-06T15:30:28.796Z,4.70
2023-03-06T15:33:24.226Z,6.00
2023-03-06T15:35:57.209Z,4.20
2023-03-06T15:38:30.771Z,5.70
2023-03-06T15:41:02.220Z,5.40
2023-03-06T15:43:34.795Z,4.90
2023-03-06T15:46:04.977Z,5.67
2023-03-06T15:48:33.845Z,4.67
2023-03-06T15:51:03.489Z,4.40
2023-03-06T15:53:31.772Z,5.27
2023-03-06T15:56:01.250Z,5.70
2023-03-06T15:58:31.399Z,4.60
2023-03-06T16:00:59.593Z,4.70
2023-03-06T16:03:27.897Z,6.17
2023-03-06T16:05:55.895Z,5.17
2023-03-06T16:08:25.484Z,5.20
2023-03-06T16:10:53.498Z,5.47
2023-03-06T16:13:27.381Z,6.40
2023-03-06T16:15:56.283Z,5.83
2023-03-06T16:18:24.290Z,6.20
2023-03-06T16:20:52.647Z,4.70
2023-03-06T16:23:20.740Z,6.17
2023-03-06T16:25:50.088Z,5.07
2023-03-06T16:28:18.633Z,6.03
2023-03-06T16:30:48.198Z,5.47
2023-03-06T16:33:16.276Z,5.80
2023-03-06T16:35:46.571Z,5.50
2023-03-06T16:38:15.711Z,5.80
2023-03-06T16:40:44.145Z,5.57
2023-03-06T16:43:13.538Z,7.50
2023-03-06T16:45:42.765Z,6.23
2023-03-06T16:48:16.713Z,7.43
2023-03-06T16:50:45.157Z,6.40
2023-03-06T16:53:13.277Z,6.00
2023-03-06T16:55:41.319Z,6.20
2023-03-06T16:58:10.005Z,6.10
2023-03-06T17:00:38.141Z,6.27
2023-03-06T17:03:07.450Z,5.63
2023-03-06T17:05:39.567Z,5.90
2023-03-06T17:08:07.602Z,5.33
2023-03-06T17:10:35.925Z,6.90
2023-03-06T17:13:05.158Z,6.20
2023-03-06T17:15:33.423Z,5.37
2023-03-06T17:18:01.630Z,6.57
2023-03-06T17:20:29.713Z,7.00
2023-03-06T17:23:00.571Z,5.83
2023-03-06T17:25:28.547Z,7.07
2023-03-06T17:27:56.571Z,7.23
2023-03-06T17:30:24.665Z,7.67
2023-03-06T17:32:53.636Z,6.80
2023-03-06T17:35:21.742Z,6.40
2023-03-06T17:37:49.879Z,7.00
2023-03-06T17:40:19.677Z,8.10
2023-03-06T17:42:47.697Z,7.77
2023-03-06T17:45:16.026Z,7.80
2023-03-06T17:47:46.468Z,7.67
2023-03-06T17:50:16.129Z,8.00
2023-03-06T17:52:51.522Z,7.63
2023-03-06T17:55:20.994Z,7.40
2023-03-06T17:57:48.994Z,8.43
2023-03-06T18:00:17.868Z,7.83
2023-03-06T18:02:46.163Z,8.40
2023-03-06T18:05:14.383Z,7.23
2023-03-06T18:07:42.481Z,7.20
2023-03-06T18:10:11.589Z,8.70
2023-03-06T18:12:40.938Z,9.20
2023-03-06T18:15:10.024Z,8.40
2023-03-06T18:17:38.558Z,7.60
2023-03-06T18:20:07.532Z,7.60
2023-03-06T18:22:35.550Z,7.90
2023-03-06T18:25:03.865Z,6.90
2023-03-06T18:27:34.100Z,8.10
2023-03-06T18:30:03.561Z,6.97
2023-03-06T18:32:32.191Z,8.30
2023-03-06T18:35:00.272Z,7.00
2023-03-06T18:37:28.375Z,7.10
2023-03-06T18:39:56.529Z,6.87
2023-03-06T18:42:24.701Z,6.43
2023-03-06T18:44:58.189Z,8.57
2023-03-06T18:47:27.987Z,6.90
2023-03-06T18:49:56.463Z,8.47
2023-03-06T18:52:24.504Z,7.20
2023-03-06T18:54:53.497Z,6.90
2023-03-06T18:57:21.614Z,7.70
2023-03-06T18:59:50.089Z,7.97
2023-03-06T19:02:20.995Z,7.30
2023-03-06T19:04:54.632Z,7.80
2023-03-06T19:07:22.615Z,8.57
2023-03-06T19:09:50.708Z,7.97
2023-03-06T19:12:18.872Z,8.77
2023-03-06T19:14:47.029Z,7.30
2023-03-06T19:17:15.259Z,7.23
2023-03-06T19:19:43.392Z,7.50
2023-03-06T19:22:12.962Z,6.80
2023-03-06T19:24:41.191Z,6.90
2023-03-06T19:27:11.428Z,8.00
2023-03-06T19:29:39.740Z,6.07
2023-03-06T19:32:08.250Z,6.80
2023-03-06T19:34:36.521Z,7.90
2023-03-06T19:37:13.160Z,7.40
2023-03-06T19:39:44.372Z,7.87
2023-03-06T19:42:15.787Z,6.60
2023-03-06T19:44:44.130Z,7.63
2023-03-06T19:47:12.102Z,7.13
2023-03-06T19:49:40.307Z,7.03
2023-03-06T19:52:08.590Z,7.17
2023-03-06T19:54:37.224Z,7.17
2023-03-06T19:57:06.591Z,7.70
2023-03-06T19:59:34.854Z,7.20
2023-03-06T20:02:02.878Z,7.73
2023-03-06T20:04:32.832Z,7.70
2023-03-06T20:07:01.441Z,8.10
2023-03-06T20:09:32.306Z,8.67
2023-03-06T20:12:00.575Z,7.70
2023-03-06T20:14:30.446Z,7.70
2023-03-06T20:16:58.504Z,7.87
2023-03-06T20:19:26.797Z,7.30
2023-03-06T20:21:55.836Z,7.33
2023-03-06T20:24:25.919Z,7.53
2023-03-06T20:26:57.433Z,7.90
2023-03-06T20:29:28.048Z,6.80
2023-03-06T20:31:58.593Z,7.83
2023-03-06T20:34:27.124Z,8.20
2023-03-06T20:36:56.772Z,7.60
2023-03-06T20:39:25.386Z,7.20
2023-03-06T20:41:53.703Z,8.20
2023-03-06T20:44:23.009Z,7.57
2023-03-06T20:46:51.973Z,8.07
2023-03-06T20:49:22.761Z,7.97
2023-03-06T20:51:51.040Z,7.00
2023-03-06T20:54:22.383Z,7.40
2023-03-06T20:57:00.824Z,7.70
2023-03-06T20:59:31.729Z,6.63
2023-03-06T21:01:59.810Z,8.27
2023-03-06T21:04:29.201Z,7.33
2023-03-06T21:06:57.276Z,7.80
2023-03-06T21:09:25.475Z,8.40
2023-03-06T21:11:53.565Z,7.40
2023-03-06T21:14:21.749Z,7.20
2023-03-06T21:16:49.899Z,7.03
2023-03-06T21:19:19.279Z,7.47
2023-03-06T21:21:48.627Z,7.77
2023-03-06T21:24:16.776Z,6.37
2023-03-06T21:26:44.799Z,7.00
2023-03-06T21:29:12.839Z,6.97
2023-03-06T21:31:41.227Z,9.10
2023-03-06T21:34:11.386Z,9.10
2023-03-06T21:36:39.365Z,6.30
2023-03-06T21:39:08.738Z,7.43
2023-03-06T21:41:38.106Z,7.73
2023-03-06T21:44:07.681Z,8.03
2023-03-06T21:46:36.399Z,8.40
2023-03-06T21:49:05.356Z,7.43
2023-03-06T21:51:33.565Z,7.17
2023-03-06T21:54:02.089Z,7.97
2023-03-06T21:56:33.368Z,7.97
2023-03-06T21:59:01.583Z,8.80
2023-03-06T22:01:30.447Z,8.80
2023-03-06T22:03:59.963Z,8.63
2023-03-06T22:06:30.037Z,9.27
2023-03-06T22:08:59.521Z,9.00
2023-03-06T22:11:31.276Z,9.13
2023-03-06T22:14:00.775Z,8.10
2023-03-06T22:16:28.938Z,7.07
2023-03-06T22:18:57.167Z,7.93
2023-03-06T22:21:25.443Z,8.70
2023-03-06T22:23:54.641Z,8.80
2023-03-06T22:26:22.814Z,8.73
2023-03-06T22:28:51.118Z,9.30
2023-03-06T22:31:23.952Z,10.33
2023-03-06T22:33:52.479Z,8.90
2023-03-06T22:36:21.026Z,7.53
2023-03-06T22:38:49.887Z,8.43
2023-03-06T22:41:20.154Z,9.20
2023-03-06T22:43:48.350Z,9.30
2023-03-06T22:46:18.720Z,9.43
2023-03-06T22:48:48.065Z,9.23
2023-03-06T22:51:18.308Z,8.20
2023-03-06T22:53:47.038Z,8.77
2023-03-06T22:56:17.851Z,8.80
2023-03-06T22:58:46.402Z,9.50
2023-03-06T23:01:16.593Z,10.00
2023-03-06T23:03:48.076Z,8.43
2023-03-06T23:06:17.904Z,9.23
2023-03-06T23:08:50.235Z,9.70
2023-03-06T23:11:19.857Z,8.23
2023-03-06T23:13:48.023Z,10.13
2023-03-06T23:16:16.530Z,8.10
2023-03-06T23:18:44.832Z,9.00
2023-03-06T23:21:16.266Z,7.60
2023-03-06T23:23:49.593Z,8.97
2023-03-06T23:26:18.722Z,8.70
2023-03-06T23:28:46.938Z,8.60
2023-03-06T23:31:16.710Z,9.70
2023-03-06T23:33:44.922Z,7.83
2023-03-06T23:36:16.230Z,9.10
2023-03-06T23:38:44.639Z,7.70
2023-03-06T23:41:14.127Z,9.17
2023-03-06T23:43:42.474Z,8.80
2023-03-06T23:46:10.789Z,8.70
2023-03-06T23:48:41.506Z,8.53
2023-03-06T23:51:10.952Z,9.40
2023-03-06T23:53:40.399Z,9.57
2023-03-06T23:56:09.607Z,8.50
2023-03-06T23:58:37.932Z,9.17
